Time;durP1;ratioP1;P1;durP2;ratioP2;P2;SDS_P1;SDS_P2;PMS_P1;PMS_P2;Temp;Humidity;BMP_temperature;BMP_pressure;BME280_temperature;BME280_humidity;BME280_pressure;Samples;Min_cycle;Max_cycle;Signal;HPM_P1;HPM_P2
2021/07/30 00:02:10;;;;;;;69.30;40.75;;;;;;;21.57;100.00;98535.33;1720074;83;20939;-70
2021/07/30 00:04:39;;;;;;;62.73;38.38;;;;;;;21.60;100.00;98533.80;1755062;81;21231;-68
2021/07/30 00:07:09;;;;;;;49.40;32.08;;;;;;;21.61;100.00;98531.02;1764962;81;22317;-68
2021/07/30 00:09:38;;;;;;;40.63;25.82;;;;;;;21.60;100.00;98535.14;1756982;81;21568;-69
2021/07/30 00:12:07;;;;;;;30.40;20.15;;;;;;;21.61;100.00;98532.84;1758507;81;21001;-68
2021/07/30 00:14:36;;;;;;;26.17;17.67;;;;;;;21.63;100.00;98536.29;1748531;81;21413;-69
2021/07/30 00:17:05;;;;;;;21.95;14.95;;;;;;;21.64;100.00;98535.34;1745308;81;21121;-69
2021/07/30 00:19:34;;;;;;;21.73;12.80;;;;;;;21.64;100.00;98538.02;1756609;81;21022;-69
2021/07/30 00:22:05;;;;;;;21.15;11.53;;;;;;;21.64;100.00;98538.02;1756137;81;21031;-69
2021/07/30 00:24:33;;;;;;;16.12;10.35;;;;;;;21.67;100.00;98541.86;1767116;81;21553;-69
2021/07/30 00:27:01;;;;;;;14.28;9.65;;;;;;;21.71;100.00;98538.51;1771890;81;21465;-69
2021/07/30 00:29:30;;;;;;;16.17;9.15;;;;;;;21.75;100.00;98536.02;1772924;81;21150;-68
2021/07/30 00:31:58;;;;;;;11.95;8.15;;;;;;;21.79;100.00;98541.62;1766110;81;20840;-68
2021/07/30 00:34:27;;;;;;;11.70;7.10;;;;;;;21.77;100.00;98543.05;1772111;80;20988;-68
2021/07/30 00:36:56;;;;;;;8.73;6.05;;;;;;;21.76;100.00;98541.33;1776871;80;21502;-69
2021/07/30 00:39:27;;;;;;;7.17;5.30;;;;;;;21.78;100.00;98538.08;1777471;80;21058;-69
2021/07/30 00:41:56;;;;;;;7.53;4.87;;;;;;;21.80;100.00;98543.34;1777277;80;21493;-69
2021/07/30 00:44:25;;;;;;;7.67;4.78;;;;;;;21.82;100.00;98536.92;1777341;80;21696;-70
2021/07/30 00:46:54;;;;;;;7.95;4.60;;;;;;;21.85;100.00;98534.53;1776881;80;21015;-70
2021/07/30 00:49:22;;;;;;;7.15;4.42;;;;;;;21.86;100.00;98530.41;1771776;80;20856;-69
2021/07/30 00:51:51;;;;;;;5.58;4.60;;;;;;;21.86;100.00;98525.04;1749258;81;20951;-69
2021/07/30 00:54:21;;;;;;;7.25;4.30;;;;;;;21.85;100.00;98522.45;1742824;82;21113;-69
2021/07/30 00:56:51;;;;;;;4.60;3.90;;;;;;;21.86;100.00;98525.04;1762283;81;21420;-70
2021/07/30 00:59:21;;;;;;;6.62;4.22;;;;;;;21.89;100.00;98522.16;1769182;81;20936;-70
2021/07/30 01:01:50;;;;;;;8.48;4.53;;;;;;;21.91;100.00;98522.93;1728571;82;21454;-69
2021/07/30 01:04:19;;;;;;;9.55;4.05;;;;;;;21.90;100.00;98520.34;1745287;82;20867;-70
2021/07/30 01:06:48;;;;;;;7.05;4.30;;;;;;;21.88;100.00;98523.13;1761027;81;21376;-69
2021/07/30 01:09:17;;;;;;;5.50;4.10;;;;;;;21.88;100.00;98525.80;1769671;81;20952;-69
2021/07/30 01:11:45;;;;;;;10.20;4.15;;;;;;;21.90;100.00;98526.58;1770549;81;20937;-69
2021/07/30 01:14:15;;;;;;;7.00;3.90;;;;;;;21.94;100.00;98527.25;1770791;81;21411;-69
2021/07/30 01:16:45;;;;;;;5.85;4.33;;;;;;;21.96;100.00;98522.64;1764309;81;20998;-70
2021/07/30 01:19:24;;;;;;;13.88;5.10;;;;;;;21.95;100.00;98524.95;1742650;82;21092;-68
2021/07/30 01:21:53;;;;;;;8.70;4.85;;;;;;;21.91;100.00;98520.25;1753025;81;20881;-68
2021/07/30 01:24:24;;;;;;;6.08;3.98;;;;;;;21.87;100.00;98524.56;1758461;81;21030;-68
2021/07/30 01:26:53;;;;;;;6.45;4.25;;;;;;;21.85;100.00;98524.66;1758167;80;20935;-68
2021/07/30 01:29:24;;;;;;;11.15;4.20;;;;;;;21.86;100.00;98526.86;1763078;81;21466;-68
2021/07/30 01:31:52;;;;;;;7.85;4.70;;;;;;;21.86;100.00;98525.04;1760989;80;21403;-68
2021/07/30 01:34:20;;;;;;;10.50;4.85;;;;;;;21.85;100.00;98523.31;1763446;81;20912;-68
2021/07/30 01:36:48;;;;;;;12.55;4.35;;;;;;;21.86;100.00;98523.70;1767324;81;20981;-68
2021/07/30 01:39:17;;;;;;;6.92;4.42;;;;;;;21.88;100.00;98523.59;1765176;81;21000;-69
2021/07/30 01:41:45;;;;;;;8.83;4.78;;;;;;;21.88;100.00;98521.78;1767314;81;20924;-68
2021/07/30 01:44:15;;;;;;;7.15;4.85;;;;;;;21.90;100.00;98521.69;1767526;80;21487;-69
2021/07/30 01:46:45;;;;;;;8.85;5.17;;;;;;;21.89;100.00;98527.53;1762670;80;21593;-69
2021/07/30 01:49:14;;;;;;;10.50;4.75;;;;;;;21.90;100.00;98529.73;1763847;80;21063;-69
2021/07/30 01:51:41;;;;;;;8.88;4.95;;;;;;;21.87;100.00;98528.59;1765865;81;21043;-69
2021/07/30 01:54:10;;;;;;;11.33;4.70;;;;;;;21.84;100.00;98531.46;1757652;80;21398;-69
2021/07/30 01:56:38;;;;;;;6.45;4.28;;;;;;;21.83;100.00;98530.59;1757872;80;21140;-69
2021/07/30 01:59:07;;;;;;;11.65;5.03;;;;;;;21.82;100.00;98528.01;1756602;80;20913;-69
2021/07/30 02:02:47;;;;;;;5.95;4.83;;;;;;;21.82;100.00;98536.06;1752261;81;21557;-69
2021/07/30 02:05:17;;;;;;;9.70;4.87;;;;;;;21.78;100.00;98536.73;1765691;81;21498;-69
2021/07/30 02:07:46;;;;;;;11.03;5.03;;;;;;;21.74;100.00;98539.19;1759344;80;21547;-68
2021/07/30 02:10:15;;;;;;;7.83;4.50;;;;;;;21.69;100.00;98540.81;1761158;81;21529;-68
2021/07/30 02:15:33;;;;;;;8.33;5.08;;;;;;;21.64;100.00;98543.39;1767034;80;21726;-68
2021/07/30 02:18:02;;;;;;;9.43;6.22;;;;;;;21.60;100.00;98540.50;1767245;80;20976;-68
2021/07/30 02:20:30;;;;;;;8.18;6.17;;;;;;;21.56;100.00;98538.48;1760901;81;20916;-68
2021/07/30 02:22:59;;;;;;;13.20;6.67;;;;;;;21.53;100.00;98544.04;1767582;81;21839;-67
2021/07/30 02:25:27;;;;;;;11.10;5.67;;;;;;;21.51;100.00;98543.75;1766675;81;21708;-68
2021/07/30 02:27:55;;;;;;;9.38;4.95;;;;;;;21.47;100.00;98544.41;1764238;80;20995;-68
2021/07/30 02:30:22;;;;;;;11.45;5.58;;;;;;;21.49;100.00;98556.39;1762830;80;20892;-68
2021/07/30 02:32:52;;;;;;;12.28;5.03;;;;;;;21.47;100.00;98548.44;1769546;80;20900;-67
2021/07/30 02:35:20;;;;;;;9.08;5.25;;;;;;;21.44;100.00;98543.73;1772680;80;21415;-68
2021/07/30 02:37:48;;;;;;;8.73;5.17;;;;;;;21.41;100.00;98547.94;1773787;80;21467;-68
2021/07/30 02:40:18;;;;;;;8.68;5.10;;;;;;;21.39;100.00;98553.87;1773717;81;21430;-67
2021/07/30 02:42:46;;;;;;;9.85;5.60;;;;;;;21.35;100.00;98550.03;1773056;80;21506;-67
2021/07/30 02:45:14;;;;;;;9.00;5.40;;;;;;;21.36;100.00;98550.41;1769066;80;20919;-66
2021/07/30 02:47:43;;;;;;;11.85;5.80;;;;;;;21.34;100.00;98555.48;1775248;80;21411;-66
2021/07/30 02:50:10;;;;;;;7.87;6.12;;;;;;;21.31;100.00;98560.56;1757332;80;20836;-67
2021/07/30 02:52:39;;;;;;;9.13;6.80;;;;;;;21.28;100.00;98562.05;1753711;80;20950;-66
2021/07/30 02:55:08;;;;;;;8.75;6.65;;;;;;;21.23;100.00;98561.45;1765453;80;21454;-66
2021/07/30 02:57:35;;;;;;;12.78;5.95;;;;;;;21.18;100.00;98566.66;1773962;80;21486;-66
2021/07/30 03:00:05;;;;;;;8.13;5.60;;;;;;;21.15;100.00;98562.34;1763230;80;21103;-67
2021/07/30 03:02:33;;;;;;;9.93;5.80;;;;;;;21.16;100.00;98559.19;1752301;80;21434;-67
2021/07/30 03:05:02;;;;;;;6.92;5.83;;;;;;;21.15;100.00;98559.66;1773678;80;21407;-66
2021/07/30 03:07:29;;;;;;;8.65;6.45;;;;;;;21.14;100.00;98564.64;1773429;81;20896;-67
2021/07/30 03:09:57;;;;;;;10.48;6.60;;;;;;;21.10;100.00;98569.80;1763062;81;20994;-67
2021/07/30 03:12:25;;;;;;;8.35;6.00;;;;;;;21.10;100.00;98575.64;1769950;80;21383;-67
2021/07/30 03:14:53;;;;;;;9.83;5.37;;;;;;;21.09;100.00;98581.95;1772875;80;21412;-67
2021/07/30 03:17:22;;;;;;;8.83;6.20;;;;;;;21.11;100.00;98580.91;1774431;80;20983;-68
2021/07/30 03:19:50;;;;;;;14.68;6.70;;;;;;;21.12;100.00;98586.66;1773838;80;21494;-67
2021/07/30 03:22:18;;;;;;;13.05;7.47;;;;;;;21.13;100.00;98587.52;1764061;80;21447;-67
2021/07/30 03:24:46;;;;;;;8.93;7.12;;;;;;;21.10;100.00;98584.55;1759210;80;21406;-67
2021/07/30 03:27:13;;;;;;;9.00;6.33;;;;;;;21.08;100.00;98586.45;1763337;80;20884;-67
2021/07/30 03:29:41;;;;;;;8.95;5.70;;;;;;;21.10;100.00;98595.75;1756335;81;20915;-66
2021/07/30 03:32:09;;;;;;;9.35;5.62;;;;;;;21.13;100.00;98597.78;1756649;81;21422;-68
2021/07/30 03:34:37;;;;;;;10.00;6.20;;;;;;;21.14;100.00;98599.51;1763612;81;21449;-67
2021/07/30 03:37:05;;;;;;;8.68;6.00;;;;;;;21.16;100.00;98604.30;1771321;81;21064;-67
2021/07/30 03:39:33;;;;;;;12.18;5.58;;;;;;;21.16;100.00;98604.30;1747343;80;21437;-66
2021/07/30 03:42:01;;;;;;;8.95;5.97;;;;;;;21.19;100.00;98612.17;1736574;82;20987;-66
2021/07/30 03:44:30;;;;;;;13.13;6.20;;;;;;;21.23;100.00;98615.58;1735949;82;20939;-65
2021/07/30 03:46:58;;;;;;;10.60;6.08;;;;;;;21.28;100.00;98620.20;1737712;81;21449;-65
2021/07/30 03:49:26;;;;;;;11.38;7.08;;;;;;;21.30;100.00;98622.34;1733904;82;21939;-65
2021/07/30 03:51:53;;;;;;;10.60;6.22;;;;;;;21.29;100.00;98628.19;1763563;80;20969;-66
2021/07/30 03:54:21;;;;;;;10.20;6.08;;;;;;;21.31;100.00;98626.77;1736869;82;21002;-65
2021/07/30 03:56:48;;;;;;;10.50;6.65;;;;;;;21.34;100.00;98629.27;1757588;80;20886;-64
2021/07/30 03:59:16;;;;;;;11.73;6.78;;;;;;;21.36;100.00;98632.24;1736885;82;21054;-66
2021/07/30 04:01:48;;;;;;;19.77;7.92;;;;;;;21.40;100.00;98636.09;1762671;80;21402;-64
2021/07/30 04:04:15;;;;;;;12.33;6.67;;;;;;;21.40;100.00;98634.27;1764007;80;21445;-62
2021/07/30 04:06:44;;;;;;;9.50;7.17;;;;;;;21.45;100.00;98638.03;1760675;80;20967;-64
2021/07/30 04:09:12;;;;;;;13.72;6.87;;;;;;;21.52;100.00;98638.92;1732088;82;20955;-63
2021/07/30 04:11:40;;;;;;;10.43;6.95;;;;;;;21.57;100.00;98639.52;1732205;82;20927;-62
2021/07/30 04:14:09;;;;;;;12.03;8.33;;;;;;;21.64;100.00;98640.02;1731524;82;21348;-63
2021/07/30 04:16:40;;;;;;;15.55;7.92;;;;;;;21.70;100.00;98645.02;1731684;82;21374;-65
2021/07/30 04:19:09;;;;;;;13.65;7.92;;;;;;;21.76;100.00;98650.05;1731882;81;20911;-64
2021/07/30 04:21:40;;;;;;;15.23;8.00;;;;;;;21.82;100.00;98651.03;1732095;81;20867;-65
2021/07/30 04:24:09;;;;;;;14.07;9.03;;;;;;;21.87;100.00;98653.44;1732411;81;21503;-66
2021/07/30 04:26:36;;;;;;;14.38;9.40;;;;;;;21.90;100.00;98640.70;1729723;81;21592;-65
2021/07/30 04:29:04;;;;;;;10.60;8.63;;;;;;;21.93;100.00;98640.52;1717868;81;20908;-62
2021/07/30 04:31:32;;;;;;;12.05;8.55;;;;;;;21.97;100.00;98633.13;1718060;81;21425;-64
2021/07/30 04:34:00;;;;;;;10.00;8.98;;;;;;;22.05;100.00;98640.28;1710208;83;20957;-63
2021/07/30 04:36:29;;;;;;;20.02;9.58;;;;;;;22.10;100.00;98641.34;1739454;82;21486;-61
2021/07/30 04:38:59;;;;;;;12.23;9.70;;;;;;;22.18;100.00;98645.77;1704365;82;20986;-62
2021/07/30 04:41:26;;;;;;;14.23;9.20;;;;;;;22.20;100.00;98638.47;1738373;82;21438;-62
2021/07/30 04:43:54;;;;;;;10.13;8.70;;;;;;;22.27;100.00;98645.23;1742076;82;20903;-65
2021/07/30 04:46:22;;;;;;;12.25;9.25;;;;;;;22.39;100.00;98639.09;1735102;81;20958;-62
2021/07/30 04:48:51;;;;;;;12.55;9.88;;;;;;;22.52;100.00;98638.71;1739712;81;21380;-63
2021/07/30 04:51:18;;;;;;;12.45;9.20;;;;;;;22.62;100.00;98641.68;1735630;82;21831;-63
2021/07/30 04:53:49;;;;;;;15.63;9.48;;;;;;;22.74;100.00;98649.48;1764173;81;20880;-63
2021/07/30 04:56:21;;;;;;;19.90;8.20;;;;;;;22.84;100.00;98651.52;1763580;80;20888;-63
2021/07/30 04:58:50;;;;;;;9.23;7.42;;;;;;;22.96;100.00;98651.20;1765976;80;20935;-63
2021/07/30 05:01:19;;;;;;;7.95;7.08;;;;;;;23.12;100.00;98646.56;1765918;81;20928;-63
2021/07/30 05:03:47;;;;;;;9.95;7.33;;;;;;;23.25;100.00;98649.34;1766091;80;21080;-63
2021/07/30 05:06:16;;;;;;;8.05;6.97;;;;;;;23.38;100.00;98650.74;1765774;81;20857;-62
2021/07/30 05:08:43;;;;;;;7.85;6.92;;;;;;;23.48;100.00;98649.16;1765950;81;20900;-65
2021/07/30 05:11:12;;;;;;;8.83;6.45;;;;;;;23.58;100.00;98653.00;1762794;81;20903;-66
2021/07/30 05:13:44;;;;;;;9.23;7.03;;;;;;;23.68;100.00;98654.14;1760384;80;21439;-63
2021/07/30 05:16:13;;;;;;;11.97;7.30;;;;;;;23.79;100.00;98653.41;1762821;80;21044;-64
2021/07/30 05:18:41;;;;;;;15.68;8.08;;;;;;;23.85;100.00;98650.30;1753690;80;20876;-62
2021/07/30 05:21:12;;;;;;;9.43;7.50;;;;;;;23.95;100.00;98650.05;1751083;80;21487;-63
2021/07/30 05:23:39;;;;;;;9.63;6.72;;;;;;;24.03;100.00;98648.17;1759387;81;20944;-62
2021/07/30 05:26:07;;;;;;;8.33;6.70;;;;;;;24.11;100.00;98648.52;1746028;80;20954;-62
2021/07/30 05:28:34;;;;;;;11.50;7.22;;;;;;;24.22;100.00;98648.66;1725243;83;21105;-63
2021/07/30 05:31:01;;;;;;;8.53;7.15;;;;;;;24.31;100.00;98645.84;1748633;80;20992;-62
2021/07/30 05:33:29;;;;;;;9.55;7.28;;;;;;;24.42;100.00;98655.38;1745733;80;21441;-62
2021/07/30 05:35:57;;;;;;;9.28;6.90;;;;;;;24.52;100.00;98656.94;1725517;83;20872;-63
2021/07/30 05:38:25;;;;;;;7.85;7.05;;;;;;;24.59;100.00;98657.74;1748437;82;20891;-66
2021/07/30 05:40:52;;;;;;;8.70;6.47;;;;;;;24.69;100.00;98653.94;1746016;80;21431;-66
2021/07/30 05:43:20;;;;;;;7.65;6.90;;;;;;;24.79;100.00;98653.65;1719314;83;20904;-65
2021/07/30 05:45:48;;;;;;;9.25;7.35;;;;;;;24.91;100.00;98654.59;1745999;80;21446;-66
2021/07/30 05:48:16;;;;;;;8.35;6.67;;;;;;;25.00;100.00;98652.61;1726495;83;21488;-66
2021/07/30 05:50:48;;;;;;;10.72;6.97;;;;;;;25.09;100.00;98654.67;1727142;83;20911;-66
2021/07/30 05:53:16;;;;;;;11.28;7.50;;;;;;;25.19;100.00;98644.06;1726102;83;21099;-66
2021/07/30 05:55:45;;;;;;;8.05;7.25;;;;;;;25.26;100.00;98648.03;1749350;80;20860;-66
2021/07/30 05:58:12;;;;;;;7.67;6.87;;;;;;;25.35;100.00;98654.95;1750023;82;20946;-66
2021/07/30 06:00:40;;;;;;;7.37;6.62;;;;;;;25.42;100.00;98650.82;1718280;83;21430;-66
2021/07/30 06:03:08;;;;;;;10.13;6.70;;;;;;;25.53;100.00;98654.06;1746833;82;20954;-65
2021/07/30 06:05:36;;;;;;;8.33;7.12;;;;;;;25.63;100.00;98645.67;1750055;82;21542;-64
2021/07/30 06:08:05;;;;;;;8.38;7.12;;;;;;;25.75;100.00;98661.47;1751225;80;20931;-65
2021/07/30 06:10:33;;;;;;;9.25;7.72;;;;;;;25.83;100.00;98651.44;1749946;81;20916;-64
2021/07/30 06:13:01;;;;;;;15.83;7.70;;;;;;;25.92;100.00;98649.38;1718945;83;20950;-65
2021/07/30 06:15:29;;;;;;;8.85;7.70;;;;;;;25.99;100.00;98644.73;1749982;81;20903;-65
2021/07/30 06:17:57;;;;;;;10.75;7.90;;;;;;;26.08;100.00;98643.19;1750995;82;21824;-66
2021/07/30 06:20:25;;;;;;;10.60;7.70;;;;;;;26.17;100.00;98639.77;1751066;80;20877;-65
2021/07/30 06:22:53;;;;;;;9.20;7.85;;;;;;;26.24;100.00;98643.72;1750491;80;20935;-67
2021/07/30 06:25:21;;;;;;;8.78;7.42;;;;;;;26.33;100.00;98644.38;1749666;80;20837;-66
2021/07/30 06:27:49;;;;;;;7.92;7.12;;;;;;;26.42;100.00;98644.64;1747481;81;20944;-67
2021/07/30 06:30:18;;;;;;;8.35;7.15;;;;;;;26.51;100.00;98640.75;1750948;81;21066;-67
2021/07/30 06:32:45;;;;;;;9.10;7.45;;;;;;;26.58;100.00;98635.22;1751009;80;20904;-67
2021/07/30 06:35:15;;;;;;;9.40;7.33;;;;;;;26.68;100.00;98638.05;1750935;82;20908;-66
2021/07/30 06:37:43;;;;;;;12.45;7.72;;;;;;;26.75;100.00;98642.47;1750869;81;20920;-68
2021/07/30 06:40:12;;;;;;;10.63;7.12;;;;;;;26.80;100.00;98638.41;1751026;80;20970;-65
2021/07/30 06:42:40;;;;;;;9.50;7.60;;;;;;;26.87;100.00;98638.28;1753954;80;21112;-64
2021/07/30 06:45:07;;;;;;;10.05;8.23;;;;;;;26.95;100.00;98638.52;1745972;80;20931;-64
2021/07/30 06:47:36;;;;;;;8.55;7.62;;;;;;;27.05;100.00;98635.98;1750558;81;20931;-65
2021/07/30 06:50:04;;;;;;;7.83;7.03;;;;;;;27.13;100.00;98637.58;1750169;81;21431;-65
2021/07/30 06:52:32;;;;;;;10.08;7.22;;;;;;;27.20;100.00;98633.38;1751117;82;20928;-67
2021/07/30 06:55:00;;;;;;;10.63;7.60;;;;;;;27.26;100.00;98630.16;1751187;82;21182;-66
2021/07/30 06:57:28;;;;;;;9.58;7.10;;;;;;;27.33;100.00;98625.59;1749177;80;20946;-66
2021/07/30 06:59:57;;;;;;;10.03;7.45;;;;;;;27.40;100.00;98630.37;1747451;80;21432;-66
2021/07/30 07:02:26;;;;;;;9.65;7.10;;;;;;;27.47;100.00;98629.39;1751001;82;20939;-66
2021/07/30 07:04:53;;;;;;;7.58;6.67;;;;;;;27.54;100.00;98627.40;1751153;82;20893;-66
2021/07/30 07:07:21;;;;;;;7.78;6.65;;;;;;;27.63;100.00;98627.64;1750999;81;21936;-65
2021/07/30 07:09:48;;;;;;;8.03;7.17;;;;;;;27.71;100.00;98626.50;1751226;82;20912;-66
2021/07/30 07:12:16;;;;;;;8.00;7.15;;;;;;;27.78;100.00;98627.20;1666287;83;20935;-66
2021/07/30 07:14:44;;;;;;;10.93;6.92;;;;;;;27.85;100.00;98627.05;1760882;81;20980;-59
2021/07/30 07:17:15;;;;;;;7.60;6.90;;;;;;;27.93;100.00;98628.27;1754522;80;20994;-66
2021/07/30 07:19:43;;;;;;;7.60;6.85;;;;;;;28.00;100.00;98626.27;1761700;81;21719;-67
2021/07/30 07:22:11;;;;;;;8.90;6.70;;;;;;;28.09;100.00;98629.53;1762412;81;20892;-67
2021/07/30 07:24:39;;;;;;;7.45;6.70;;;;;;;28.16;100.00;98625.30;1760904;81;20860;-66
2021/07/30 07:27:07;;;;;;;9.68;6.53;;;;;;;28.21;100.00;98627.12;1759107;80;20916;-66
2021/07/30 07:29:35;;;;;;;10.45;8.35;;;;;;;28.28;100.00;98622.05;1758312;80;20943;-65
2021/07/30 07:32:04;;;;;;;6.97;6.20;;;;;;;28.37;100.00;98627.17;1761213;80;21125;-65
2021/07/30 07:34:31;;;;;;;6.55;5.87;;;;;;;28.43;100.00;98619.39;1758413;81;20841;-66
2021/07/30 07:36:59;;;;;;;7.65;6.45;;;;;;;28.49;100.00;98618.84;1762257;80;21471;-66
2021/07/30 07:39:27;;;;;;;7.60;6.05;;;;;;;28.53;100.00;98617.58;1750658;81;20958;-66
2021/07/30 07:41:54;;;;;;;7.47;5.95;;;;;;;28.60;100.00;98621.97;1751360;82;20860;-65
2021/07/30 07:44:23;;;;;;;5.67;4.85;;;;;;;28.66;100.00;98620.06;1751016;82;21039;-65
2021/07/30 07:46:50;;;;;;;6.00;5.03;;;;;;;28.72;100.00;98616.80;1747125;82;20936;-69
2021/07/30 07:49:19;;;;;;;6.72;4.87;;;;;;;28.79;100.00;98615.76;1751110;80;20931;-69
2021/07/30 07:51:46;;;;;;;6.10;4.65;;;;;;;28.84;100.00;98614.88;1750941;81;20995;-70
2021/07/30 07:54:13;;;;;;;9.95;4.65;;;;;;;28.92;100.00;98615.59;1751400;82;20948;-70
2021/07/30 07:56:43;;;;;;;5.03;3.98;;;;;;;28.96;100.00;98615.17;1751126;80;21156;-70
2021/07/30 07:59:11;;;;;;;4.37;3.45;;;;;;;29.02;100.00;98617.33;1747460;80;20857;-71
2021/07/30 08:01:39;;;;;;;6.03;3.92;;;;;;;29.10;100.00;98618.00;1751084;80;20896;-72
2021/07/30 08:04:08;;;;;;;10.10;7.72;;;;;;;29.19;100.00;98616.30;1751197;80;20956;-71
2021/07/30 08:06:36;;;;;;;6.95;5.08;;;;;;;29.27;100.00;98621.39;1751084;80;20861;-71
2021/07/30 08:09:03;;;;;;;8.80;4.95;;;;;;;29.33;100.00;98624.94;1751357;82;21072;-71
2021/07/30 08:24:31;;;;;;;7.67;5.67;;;;;;;30.33;100.00;98623.38;1786503;79;22708;-69
2021/07/30 08:26:59;;;;;;;8.65;4.30;;;;;;;30.42;100.00;98619.78;1791171;79;20914;-72
2021/07/30 08:29:29;;;;;;;4.17;3.62;;;;;;;30.48;96.59;98617.83;1761772;80;21164;-69
2021/07/30 08:31:57;;;;;;;5.05;3.83;;;;;;;30.54;96.71;98618.59;1791106;80;20923;-69
2021/07/30 08:34:26;;;;;;;9.20;3.90;;;;;;;30.60;96.04;98615.81;1791147;80;20864;-64
2021/07/30 08:36:56;;;;;;;5.15;3.52;;;;;;;30.64;95.18;98609.92;1764123;80;20915;-67
2021/07/30 08:39:24;;;;;;;7.67;3.80;;;;;;;30.72;96.13;98620.06;1752490;82;21458;-70
2021/07/30 08:41:53;;;;;;;4.35;3.35;;;;;;;30.77;96.34;98615.56;1752449;82;21458;-69
2021/07/30 08:44:22;;;;;;;4.47;3.75;;;;;;;30.74;91.10;98617.19;1725037;82;21387;-68
2021/07/30 08:46:51;;;;;;;4.35;3.95;;;;;;;30.68;88.46;98611.34;1730497;81;20903;-68
2021/07/30 08:49:19;;;;;;;5.37;4.00;;;;;;;30.65;91.50;98609.42;1752399;82;20919;-68
2021/07/30 08:51:49;;;;;;;6.15;3.60;;;;;;;30.65;91.31;98612.14;1730484;82;20959;-67
2021/07/30 08:54:17;;;;;;;5.92;4.00;;;;;;;30.67;91.45;98606.90;1752458;82;21786;-68
2021/07/30 08:56:45;;;;;;;5.37;3.85;;;;;;;30.74;92.32;98613.97;1752921;81;20916;-70
2021/07/30 08:59:14;;;;;;;5.00;3.55;;;;;;;30.81;92.58;98610.17;1767722;80;21168;-69
2021/07/30 09:01:43;;;;;;;5.22;3.20;;;;;;;30.91;91.62;98610.98;1758064;80;20954;-69
2021/07/30 09:04:27;;;;;;;4.53;3.45;;;;;;;30.99;88.68;98607.85;1738678;81;21028;-69
2021/07/30 09:07:00;;;;;;;4.62;3.70;;;;;;;31.09;86.36;98608.30;1768477;80;21464;-69
2021/07/30 09:09:32;;;;;;;6.15;3.50;;;;;;;31.19;87.91;98605.91;1768893;80;21387;-67
2021/07/30 09:12:12;;;;;;;4.83;3.08;;;;;;;31.26;80.98;98604.31;1770873;81;21039;-70
2021/07/30 09:14:43;;;;;;;4.78;3.33;;;;;;;31.33;75.93;98605.92;1742541;81;21478;-69
2021/07/30 09:17:12;;;;;;;3.77;3.17;;;;;;;31.37;72.81;98603.74;1772425;81;20952;-67
2021/07/30 09:20:04;;;;;;;5.10;3.33;;;;;;;31.39;71.46;98600.36;1771996;81;21147;-69
2021/07/30 09:22:30;;;;;;;5.75;3.72;;;;;;;31.43;73.08;98597.17;1770736;81;21018;-70
2021/07/30 09:25:01;;;;;;;15.93;3.77;;;;;;;31.47;72.70;98594.99;1744999;80;20850;-69
2021/07/30 09:27:32;;;;;;;13.50;3.20;;;;;;;31.51;69.98;98604.57;1743182;81;21435;-70
2021/07/30 09:30:14;;;;;;;4.72;3.17;;;;;;;31.53;67.96;98602.05;1743145;81;21504;-71
2021/07/30 09:32:42;;;;;;;3.53;3.23;;;;;;;31.59;67.98;98596.47;1743641;81;21134;-70
2021/07/30 09:35:10;;;;;;;17.45;3.67;;;;;;;31.70;69.68;98593.58;1743025;81;20976;-69
2021/07/30 09:37:38;;;;;;;3.62;3.30;;;;;;;31.80;69.28;98592.13;1722378;80;20906;-69
2021/07/30 09:40:07;;;;;;;3.37;2.98;;;;;;;31.91;66.13;98592.73;1737485;81;20949;-70
2021/07/30 09:42:37;;;;;;;3.52;2.90;;;;;;;32.00;63.26;98588.20;1707755;81;20929;-70
2021/07/30 09:45:13;;;;;;;4.03;3.10;;;;;;;32.07;60.13;98588.42;1737478;81;21197;-70
2021/07/30 09:47:50;;;;;;;6.65;3.30;;;;;;;32.12;57.49;98601.08;1742706;81;20898;-70
2021/07/30 09:50:22;;;;;;;4.35;3.80;;;;;;;32.17;58.57;98601.48;1742738;81;20893;-70
2021/07/30 09:52:53;;;;;;;4.17;3.65;;;;;;;32.22;58.66;98595.91;1742964;81;21103;-69
2021/07/30 09:55:21;;;;;;;5.33;3.30;;;;;;;32.31;59.29;98597.36;1743462;81;20989;-70
2021/07/30 09:57:51;;;;;;;3.50;3.20;;;;;;;32.42;61.66;98595.21;1742990;81;21167;-70
2021/07/30 10:00:22;;;;;;;3.20;2.90;;;;;;;32.49;59.86;98599.52;1722890;82;20867;-69
2021/07/30 10:02:50;;;;;;;5.53;2.70;;;;;;;32.52;57.63;98589.13;1737643;81;21036;-69
2021/07/30 10:05:20;;;;;;;3.15;2.85;;;;;;;32.50;55.96;98592.53;1738794;81;20881;-69
2021/07/30 10:08:06;;;;;;;3.12;2.83;;;;;;;32.51;55.85;98590.66;1736144;81;20966;-69
2021/07/30 10:10:34;;;;;;;4.47;3.20;;;;;;;32.56;58.63;98587.78;1741705;81;21090;-65
2021/07/30 10:13:06;;;;;;;4.35;3.15;;;;;;;32.60;58.72;98587.46;1742933;81;20874;-68
2021/07/30 10:15:50;;;;;;;6.33;3.05;;;;;;;32.60;55.34;98588.83;1743092;81;21027;-67
2021/07/30 10:18:21;;;;;;;6.25;3.22;;;;;;;32.58;54.41;98583.53;1743104;81;20874;-67
2021/07/30 10:20:50;;;;;;;3.83;3.00;;;;;;;32.52;52.16;98585.55;1743174;81;21546;-69
2021/07/30 10:23:24;;;;;;;5.80;2.70;;;;;;;32.46;51.84;98582.95;1739685;81;21952;-69
2021/07/30 10:25:58;;;;;;;3.33;2.65;;;;;;;32.38;52.89;98578.81;1709391;82;21039;-70
2021/07/30 10:28:28;;;;;;;3.45;2.50;;;;;;;32.37;52.14;98575.73;1720003;82;21514;-68
2021/07/30 10:31:05;;;;;;;4.15;2.27;;;;;;;32.41;51.21;98572.17;1746329;80;21002;-69
2021/07/30 10:33:38;;;;;;;3.30;2.20;;;;;;;32.49;50.42;98578.53;1722830;82;20902;-70
2021/07/30 10:36:07;;;;;;;3.58;2.37;;;;;;;32.49;48.08;98569.48;1720217;82;21147;-70
2021/07/30 10:38:35;;;;;;;4.25;2.40;;;;;;;32.50;46.87;98569.83;1746328;80;20891;-69
2021/07/30 10:41:13;;;;;;;2.95;2.42;;;;;;;32.59;47.01;98570.73;1722642;83;20909;-68
2021/07/30 10:44:03;;;;;;;3.67;2.55;;;;;;;32.64;46.28;98565.64;1682179;83;20922;-68
2021/07/30 10:46:31;;;;;;;8.65;2.87;;;;;;;32.61;45.53;98574.16;1697885;83;20895;-68
2021/07/30 10:48:59;;;;;;;3.33;2.40;;;;;;;32.54;46.72;98570.70;1697686;83;21127;-68
2021/07/30 10:51:30;;;;;;;4.75;3.20;;;;;;;32.48;46.95;98567.27;1697403;83;21501;-68
2021/07/30 10:54:01;;;;;;;2.87;2.40;;;;;;;32.44;45.90;98560.92;1704843;83;20955;-68
2021/07/30 10:56:39;;;;;;;2.85;2.40;;;;;;;32.40;45.45;98563.13;1701100;81;21058;-69
2021/07/30 10:59:07;;;;;;;3.17;2.67;;;;;;;32.43;45.96;98558.70;1726494;81;20923;-68
2021/07/30 11:01:42;;;;;;;3.70;2.62;;;;;;;32.51;47.26;98561.98;1726597;81;21385;-68
2021/07/30 11:04:12;;;;;;;5.40;2.70;;;;;;;32.58;48.18;98555.37;1718824;80;20863;-69
2021/07/30 11:06:47;;;;;;;3.10;2.70;;;;;;;32.70;49.29;98554.09;1724213;81;20876;-70
2021/07/30 11:09:17;;;;;;;4.22;2.60;;;;;;;32.82;49.53;98550.93;1724168;81;21470;-70
2021/07/30 11:11:58;;;;;;;6.55;2.58;;;;;;;32.95;49.59;98550.46;1724073;81;20997;-69
2021/07/30 11:14:36;;;;;;;2.60;2.40;;;;;;;33.07;49.06;98546.91;1724084;81;21975;-67
2021/07/30 11:17:05;;;;;;;2.65;2.45;;;;;;;33.17;48.90;98548.52;1726206;81;20879;-67
2021/07/30 11:19:43;;;;;;;3.92;2.60;;;;;;;33.21;46.81;98539.98;1724347;81;21374;-67
2021/07/30 11:22:17;;;;;;;3.65;2.60;;;;;;;33.24;47.56;98545.11;1722253;81;20919;-68
2021/07/30 11:24:47;;;;;;;3.80;3.10;;;;;;;33.28;46.73;98547.84;1726030;81;21586;-67
2021/07/30 11:27:19;;;;;;;4.97;3.10;;;;;;;33.32;45.17;98540.54;1726506;81;21814;-68
2021/07/30 11:29:50;;;;;;;16.97;2.75;;;;;;;33.40;44.47;98541.92;1712667;81;21478;-68
2021/07/30 11:32:21;;;;;;;3.65;2.40;;;;;;;33.49;46.44;98538.69;1716511;81;21452;-68
2021/07/30 11:34:49;;;;;;;;;;;;;;;33.55;45.47;98536.63;1729019;81;20934;-68
2021/07/30 11:37:25;;;;;;;4.65;2.72;;;;;;;33.53;43.97;98534.58;1726565;81;20112;-68
2021/07/30 11:39:54;;;;;;;4.10;2.55;;;;;;;33.45;44.01;98535.95;1726767;81;21116;-68
2021/07/30 11:42:31;;;;;;;3.20;2.40;;;;;;;33.51;45.08;98534.41;1737632;81;20926;-68
2021/07/30 11:45:01;;;;;;;4.20;3.20;;;;;;;33.57;44.01;98531.85;1776287;79;20950;-68
2021/07/30 11:47:30;;;;;;;4.78;2.65;;;;;;;33.59;43.42;98528.47;1773699;79;20915;-68
2021/07/30 11:50:04;;;;;;;3.08;2.50;;;;;;;33.61;43.13;98528.30;1773595;80;20919;-68
2021/07/30 11:52:31;;;;;;;4.25;2.70;;;;;;;33.66;43.43;98524.53;1773298;79;21602;-67